createdAt,value
2023-12-30T00:02:22.656Z,7.20
2023-12-30T00:08:15.982Z,7.10
2023-12-30T00:14:09.320Z,6.90
2023-12-30T00:20:04.901Z,7.00
2023-12-30T00:25:58.236Z,6.90
2023-12-30T00:31:51.516Z,6.80
2023-12-30T00:37:46.164Z,6.90
2023-12-30T00:43:40.282Z,6.70
2023-12-30T00:49:33.591Z,6.60
2023-12-30T00:55:28.297Z,6.60
2023-12-30T01:01:21.527Z,6.60
2023-12-30T01:07:14.970Z,6.60
2023-12-30T01:13:09.579Z,6.70
2023-12-30T01:19:03.029Z,6.80
2023-12-30T01:24:56.514Z,6.80
2023-12-30T01:30:51.327Z,6.80
2023-12-30T01:36:44.668Z,6.80
2023-12-30T01:42:38.081Z,6.80
2023-12-30T01:48:33.954Z,6.80
2023-12-30T01:54:28.722Z,6.80
2023-12-30T02:00:22.510Z,6.80
2023-12-30T02:06:17.239Z,6.90
2023-12-30T02:12:10.693Z,6.90
2023-12-30T02:18:04.476Z,6.80
2023-12-30T02:23:59.234Z,6.80
2023-12-30T02:29:53.553Z,6.90
2023-12-30T02:35:47.910Z,6.80
2023-12-30T02:41:42.695Z,6.80
2023-12-30T02:47:36.070Z,6.80
2023-12-30T02:53:29.437Z,6.80
2023-12-30T02:59:24.162Z,6.60
2023-12-30T03:05:17.974Z,6.60
2023-12-30T03:11:11.847Z,6.50
2023-12-30T03:17:06.642Z,6.40
2023-12-30T03:22:59.972Z,6.40
2023-12-30T03:28:53.575Z,6.30
2023-12-30T03:34:48.387Z,6.30
2023-12-30T03:40:41.807Z,6.40
2023-12-30T03:46:35.154Z,6.40
2023-12-30T03:52:31.406Z,6.40
2023-12-30T03:58:25.339Z,6.40
2023-12-30T04:04:18.485Z,6.40
2023-12-30T04:10:14.257Z,6.50
2023-12-30T04:16:09.581Z,6.50
2023-12-30T04:22:03.911Z,6.50
2023-12-30T04:27:58.872Z,6.60
2023-12-30T04:33:52.273Z,6.60
2023-12-30T04:39:45.621Z,6.30
2023-12-30T04:45:40.978Z,6.30
2023-12-30T04:51:36.654Z,6.30
2023-12-30T04:57:30.038Z,6.40
2023-12-30T05:03:24.944Z,6.40
2023-12-30T05:09:18.390Z,6.40
2023-12-30T05:15:15.412Z,6.40
2023-12-30T05:21:16.133Z,6.40
2023-12-30T05:27:09.728Z,6.50
2023-12-30T05:33:02.977Z,6.50
2023-12-30T05:38:58.661Z,6.50
2023-12-30T05:44:52.029Z,6.50
2023-12-30T05:50:45.590Z,6.50
2023-12-30T05:56:40.022Z,6.60
2023-12-30T06:02:33.495Z,6.60
2023-12-30T06:08:26.809Z,6.60
2023-12-30T06:14:21.189Z,6.60
2023-12-30T06:20:14.491Z,6.60
2023-12-30T06:26:07.831Z,6.70
2023-12-30T06:32:02.271Z,6.70
2023-12-30T06:37:55.568Z,6.70
2023-12-30T06:43:48.932Z,6.70
2023-12-30T06:49:43.416Z,6.70
2023-12-30T06:55:42.022Z,6.70
2023-12-30T07:01:41.817Z,6.70
2023-12-30T07:07:36.569Z,6.80
2023-12-30T07:13:29.731Z,6.70
2023-12-30T07:19:23.394Z,6.50
2023-12-30T07:25:18.042Z,6.40
2023-12-30T07:31:11.489Z,6.40
2023-12-30T07:37:06.028Z,6.30
2023-12-30T07:43:01.052Z,6.40
2023-12-30T07:48:54.380Z,6.40
2023-12-30T07:54:47.472Z,6.40
2023-12-30T08:00:42.176Z,6.40
2023-12-30T08:06:35.254Z,6.50
2023-12-30T08:12:28.217Z,6.50
2023-12-30T08:18:23.967Z,6.60
2023-12-30T08:24:20.241Z,6.60
2023-12-30T08:30:14.178Z,6.60
2023-12-30T08:36:09.294Z,6.60
2023-12-30T08:42:02.290Z,6.60
2023-12-30T08:47:55.693Z,6.60
2023-12-30T08:53:50.469Z,6.70
2023-12-30T08:59:43.600Z,6.70
2023-12-30T09:05:36.946Z,6.80
2023-12-30T09:11:31.647Z,6.80
2023-12-30T09:17:24.735Z,6.80
2023-12-30T09:23:18.695Z,6.80
2023-12-30T09:29:13.252Z,6.90
2023-12-30T09:35:07.637Z,6.90
2023-12-30T09:41:01.940Z,6.80
2023-12-30T09:46:59.251Z,6.90
2023-12-30T09:52:53.105Z,7.00
2023-12-30T09:58:48.668Z,6.90
2023-12-30T10:04:43.149Z,6.90
2023-12-30T10:10:46.418Z,6.90
2023-12-30T10:16:40.190Z,6.90
2023-12-30T10:22:34.759Z,6.80
2023-12-30T10:28:28.693Z,6.70
2023-12-30T10:34:22.845Z,6.70
2023-12-30T10:40:17.450Z,6.70
2023-12-30T10:46:13.296Z,6.70
2023-12-30T10:52:12.881Z,6.70
2023-12-30T10:58:18.651Z,6.70
2023-12-30T11:04:14.222Z,6.70
2023-12-30T11:10:25.315Z,6.70
2023-12-30T11:16:21.298Z,6.60
2023-12-30T11:22:14.640Z,6.70
2023-12-30T11:28:15.562Z,6.90
2023-12-30T11:34:11.329Z,6.80
2023-12-30T11:40:07.211Z,6.60
2023-12-30T11:46:01.830Z,6.40
2023-12-30T11:52:05.687Z,6.30
2023-12-30T11:57:59.034Z,6.40
2023-12-30T12:03:53.198Z,6.30
2023-12-30T12:09:47.554Z,6.30
2023-12-30T12:15:42.722Z,6.20
2023-12-30T12:21:37.368Z,6.50
2023-12-30T12:27:33.258Z,6.80
2023-12-30T12:33:26.285Z,6.70
2023-12-30T12:39:20.101Z,6.70
2023-12-30T12:45:14.977Z,6.70
2023-12-30T12:51:08.131Z,6.70
2023-12-30T12:57:01.120Z,6.80
2023-12-30T13:02:58.938Z,6.90
2023-12-30T13:08:55.818Z,7.00
2023-12-30T13:14:49.495Z,7.00
2023-12-30T13:20:46.754Z,7.10
2023-12-30T13:26:40.664Z,7.10
2023-12-30T13:32:34.334Z,7.10
2023-12-30T13:38:34.341Z,7.20
2023-12-30T13:44:27.579Z,7.20
2023-12-30T13:50:27.012Z,7.30
2023-12-30T13:56:26.375Z,7.30
2023-12-30T14:02:20.530Z,7.30
2023-12-30T14:08:19.456Z,7.30
2023-12-30T14:14:13.906Z,7.30
2023-12-30T14:20:08.075Z,7.30
2023-12-30T14:26:01.765Z,7.30
2023-12-30T14:31:56.181Z,7.30
2023-12-30T14:37:49.867Z,7.30
2023-12-30T14:43:43.371Z,7.20
2023-12-30T14:49:38.200Z,7.20
2023-12-30T14:55:31.724Z,7.30
2023-12-30T15:01:24.942Z,7.20
2023-12-30T15:07:19.660Z,7.30
2023-12-30T15:13:13.227Z,7.20
2023-12-30T15:19:06.812Z,7.10
2023-12-30T15:25:01.292Z,7.20
2023-12-30T15:30:54.938Z,7.10
2023-12-30T15:36:48.512Z,7.10
2023-12-30T15:42:43.672Z,7.00
2023-12-30T15:48:37.590Z,6.90
2023-12-30T15:54:31.219Z,7.00
2023-12-30T16:00:25.768Z,7.00
2023-12-30T16:06:20.065Z,7.00
2023-12-30T16:12:15.278Z,6.90
2023-12-30T16:18:10.346Z,6.90
2023-12-30T16:24:03.463Z,6.90
2023-12-30T16:29:57.001Z,6.90
2023-12-30T16:35:52.023Z,7.00
2023-12-30T16:41:45.876Z,6.90
2023-12-30T16:47:39.161Z,7.00
2023-12-30T16:53:34.035Z,6.90
2023-12-30T16:59:27.565Z,6.90
2023-12-30T17:05:21.866Z,6.90
2023-12-30T17:11:16.859Z,6.90
2023-12-30T17:17:10.075Z,6.90
2023-12-30T17:23:03.765Z,6.80
2023-12-30T17:28:58.723Z,6.80
2023-12-30T17:34:52.882Z,6.90
2023-12-30T17:40:46.375Z,6.90
2023-12-30T17:46:41.298Z,6.90
2023-12-30T17:52:34.816Z,6.90
2023-12-30T17:58:29.044Z,6.90
2023-12-30T18:04:23.990Z,6.80
2023-12-30T18:10:17.770Z,6.80
2023-12-30T18:16:10.740Z,6.80
2023-12-30T18:22:05.860Z,6.80
2023-12-30T18:27:58.889Z,6.90
2023-12-30T18:33:52.485Z,6.90
2023-12-30T18:39:46.892Z,6.90
2023-12-30T18:45:40.362Z,6.80
2023-12-30T18:51:33.897Z,6.90
2023-12-30T18:57:28.706Z,7.00
2023-12-30T19:03:22.302Z,7.00
2023-12-30T19:09:16.807Z,7.00
2023-12-30T19:15:11.967Z,7.00
2023-12-30T19:21:05.653Z,7.00
2023-12-30T19:26:59.146Z,7.00
2023-12-30T19:32:54.507Z,7.10
2023-12-30T19:38:48.027Z,7.10
2023-12-30T19:44:41.282Z,7.10
2023-12-30T19:50:36.340Z,7.10
2023-12-30T19:56:29.840Z,7.10
2023-12-30T20:02:23.322Z,7.20
2023-12-30T20:08:18.904Z,7.20
2023-12-30T20:14:15.317Z,7.20
2023-12-30T20:20:10.428Z,7.20
2023-12-30T20:26:06.197Z,7.20
2023-12-30T20:31:59.957Z,7.20
2023-12-30T20:37:53.493Z,7.20
2023-12-30T20:43:48.004Z,7.20
2023-12-30T20:49:44.971Z,7.20
2023-12-30T20:55:38.669Z,7.20
2023-12-30T21:01:33.540Z,7.20
2023-12-30T21:07:26.728Z,7.20
2023-12-30T21:13:21.994Z,7.20
2023-12-30T21:19:16.933Z,7.20
2023-12-30T21:25:19.116Z,7.10
2023-12-30T21:31:17.728Z,7.10
2023-12-30T21:37:13.618Z,7.20
2023-12-30T21:43:07.460Z,7.20
2023-12-30T21:49:02.348Z,7.10
2023-12-30T21:54:57.221Z,7.20
2023-12-30T22:00:50.739Z,7.10
2023-12-30T22:06:44.277Z,7.20
2023-12-30T22:12:39.093Z,7.10
2023-12-30T22:18:32.692Z,7.20
2023-12-30T22:24:26.182Z,7.10
2023-12-30T22:30:21.033Z,7.20
2023-12-30T22:36:14.532Z,7.10
2023-12-30T22:42:09.245Z,7.10
2023-12-30T22:48:04.533Z,7.10
2023-12-30T22:53:58.036Z,7.10
2023-12-30T22:59:51.420Z,7.00
2023-12-30T23:05:46.343Z,7.00
2023-12-30T23:11:39.372Z,6.90
2023-12-30T23:17:32.714Z,7.00
2023-12-30T23:23:27.591Z,7.00
2023-12-30T23:29:21.467Z,7.00
2023-12-30T23:35:15.157Z,7.00
2023-12-30T23:41:10.002Z,7.00
2023-12-30T23:47:04.043Z,6.90
2023-12-30T23:52:57.518Z,7.00
2023-12-30T23:58:52.495Z,7.00
